Time;durP1;ratioP1;P1;durP2;ratioP2;P2;SDS_P1;SDS_P2;PMS_P1;PMS_P2;Temp;Humidity;BMP_temperature;BMP_pressure;BME280_temperature;BME280_humidity;BME280_pressure;Samples;Min_cycle;Max_cycle;Signal;HPM_P1;HPM_P2
2024/03/08 00:01:31;;;;;;;23.33;13.07;;;1.90;99.90;;;;;;5053155;28;20524;-81
2024/03/08 00:03:57;;;;;;;19.93;12.03;;;1.90;99.90;;;;;;5052512;28;20637;-81
2024/03/08 00:06:24;;;;;;;19.00;11.33;;;1.80;99.90;;;;;;5052878;28;20182;-82
2024/03/08 00:08:50;;;;;;;22.30;12.17;;;1.80;99.90;;;;;;5054371;28;20221;-81
2024/03/08 00:11:16;;;;;;;20.13;12.33;;;1.80;99.90;;;;;;5054275;28;20213;-82
2024/03/08 00:13:42;;;;;;;18.63;11.67;;;1.80;99.90;;;;;;5052970;28;20201;-82
2024/03/08 00:16:09;;;;;;;21.00;12.47;;;1.80;99.90;;;;;;5052788;28;20194;-82
2024/03/08 00:18:35;;;;;;;21.47;12.43;;;1.70;99.90;;;;;;5053062;28;20295;-82
2024/03/08 00:21:01;;;;;;;21.13;12.00;;;1.70;99.90;;;;;;5046606;28;20213;-82
2024/03/08 00:23:28;;;;;;;20.83;11.13;;;1.70;99.90;;;;;;5052647;28;20272;-81
2024/03/08 00:25:55;;;;;;;20.50;12.27;;;1.70;99.90;;;;;;5053865;28;20633;-81
2024/03/08 00:28:21;;;;;;;19.03;12.27;;;1.70;99.90;;;;;;5052855;28;20189;-82
2024/03/08 00:30:47;;;;;;;19.90;11.77;;;1.60;99.90;;;;;;5052734;28;20228;-81
2024/03/08 00:33:13;;;;;;;18.87;12.20;;;1.60;99.90;;;;;;5053976;28;20279;-82
2024/03/08 00:35:39;;;;;;;19.33;11.60;;;1.60;99.90;;;;;;5052892;28;20205;-81
2024/03/08 00:38:05;;;;;;;21.93;12.23;;;1.60;99.90;;;;;;5052630;28;20200;-82
2024/03/08 00:40:31;;;;;;;20.07;11.93;;;1.70;99.90;;;;;;5055231;28;20189;-81
2024/03/08 00:42:56;;;;;;;19.33;12.33;;;1.60;99.90;;;;;;5048727;28;20193;-81
2024/03/08 00:45:23;;;;;;;20.33;11.30;;;1.60;99.90;;;;;;5058218;28;20189;-81
2024/03/08 00:47:49;;;;;;;18.10;11.73;;;1.60;99.90;;;;;;5049884;28;20523;-82
2024/03/08 00:50:15;;;;;;;22.97;12.90;;;1.50;99.90;;;;;;5044501;28;20221;-81
2024/03/08 00:52:40;;;;;;;20.60;12.43;;;1.50;99.90;;;;;;5058152;28;20181;-82
2024/03/08 00:55:10;;;;;;;21.07;11.97;;;1.50;99.90;;;;;;5056592;28;20189;-82
2024/03/08 00:57:36;;;;;;;22.00;12.30;;;1.50;99.90;;;;;;5056490;28;20190;-82
2024/03/08 01:00:09;;;;;;;20.07;11.77;;;1.40;99.90;;;;;;5056474;28;20190;-81
2024/03/08 01:02:35;;;;;;;23.23;12.73;;;1.50;99.90;;;;;;5056482;28;20246;-81
2024/03/08 01:05:02;;;;;;;26.90;12.43;;;1.40;99.90;;;;;;5056537;28;20200;-82
2024/03/08 01:07:27;;;;;;;19.93;12.07;;;1.40;99.90;;;;;;5057711;28;20257;-81
2024/03/08 01:09:53;;;;;;;21.50;12.17;;;1.40;99.90;;;;;;5056248;28;20305;-80
2024/03/08 01:12:20;;;;;;;22.37;12.37;;;1.30;99.90;;;;;;5057689;28;20197;-81
2024/03/08 01:14:45;;;;;;;23.60;12.77;;;1.30;99.90;;;;;;5056507;28;20213;-81
2024/03/08 01:17:12;;;;;;;21.80;11.47;;;1.30;99.90;;;;;;5056046;28;20625;-81
2024/03/08 01:19:39;;;;;;;20.43;12.23;;;1.30;99.90;;;;;;5049857;28;20205;-81
2024/03/08 01:22:05;;;;;;;22.43;12.43;;;1.30;99.90;;;;;;5053935;28;20526;-81
2024/03/08 01:24:30;;;;;;;21.37;12.47;;;1.30;99.90;;;;;;5050744;28;20267;-82
2024/03/08 01:26:56;;;;;;;22.50;12.17;;;1.20;99.90;;;;;;5057176;28;20560;-81
2024/03/08 01:29:22;;;;;;;22.63;12.40;;;1.20;99.90;;;;;;5057075;28;20215;-81
2024/03/08 01:31:48;;;;;;;22.97;12.73;;;1.20;99.90;;;;;;5055888;28;20198;-81
2024/03/08 01:34:14;;;;;;;20.97;12.80;;;1.20;99.90;;;;;;5057378;28;20193;-81
2024/03/08 01:36:40;;;;;;;24.33;13.33;;;1.20;99.90;;;;;;5055526;28;20565;-82
2024/03/08 01:39:09;;;;;;;23.90;12.97;;;1.20;99.90;;;;;;5055894;28;20185;-82
2024/03/08 01:41:35;;;;;;;23.40;12.93;;;1.20;99.90;;;;;;5047053;28;20265;-81
2024/03/08 01:44:02;;;;;;;21.07;12.33;;;1.10;99.90;;;;;;5056972;28;20563;-81
2024/03/08 01:46:29;;;;;;;20.33;12.13;;;1.10;99.90;;;;;;5057206;28;20209;-82
2024/03/08 01:48:56;;;;;;;22.90;12.30;;;1.10;99.90;;;;;;5056859;28;20178;-81
2024/03/08 01:51:22;;;;;;;23.27;12.50;;;1.10;99.90;;;;;;5051034;28;20220;-81
2024/03/08 01:53:48;;;;;;;23.97;13.10;;;1.10;99.90;;;;;;5056640;28;20182;-81
2024/03/08 01:56:15;;;;;;;19.00;11.50;;;1.10;99.90;;;;;;5055291;28;20189;-81
2024/03/08 01:58:44;;;;;;;22.73;12.70;;;1.10;99.90;;;;;;5055695;28;20585;-82
2024/03/08 02:01:14;;;;;;;22.67;12.73;;;1.00;99.90;;;;;;5056787;28;20221;-82
2024/03/08 02:03:43;;;;;;;26.80;12.53;;;1.00;99.90;;;;;;5048750;28;20170;-81
2024/03/08 02:06:13;;;;;;;25.37;13.33;;;1.00;99.90;;;;;;5054999;28;20200;-82
2024/03/08 02:08:39;;;;;;;24.00;13.70;;;1.00;99.90;;;;;;5056452;28;20174;-81
2024/03/08 02:11:05;;;;;;;26.43;13.33;;;1.00;99.90;;;;;;5056330;28;20210;-81
2024/03/08 02:13:31;;;;;;;23.30;13.07;;;0.90;99.90;;;;;;5054957;28;20184;-82
2024/03/08 02:16:01;;;;;;;27.10;13.07;;;1.00;99.90;;;;;;5056450;28;20186;-82
2024/03/08 02:18:28;;;;;;;23.17;13.80;;;1.00;99.90;;;;;;5050510;28;20206;-81
2024/03/08 02:20:56;;;;;;;23.53;12.97;;;0.90;99.90;;;;;;5048938;28;20269;-81
2024/03/08 02:23:24;;;;;;;22.30;13.20;;;0.90;99.90;;;;;;5054941;28;20217;-83
2024/03/08 02:25:51;;;;;;;24.43;13.67;;;0.90;99.90;;;;;;5056210;28;20558;-82
2024/03/08 02:28:20;;;;;;;22.83;12.87;;;0.90;99.90;;;;;;5046559;28;20523;-82
2024/03/08 02:30:46;;;;;;;23.73;13.00;;;0.80;99.90;;;;;;5056124;28;20206;-81
2024/03/08 02:33:17;;;;;;;26.77;13.27;;;0.80;99.90;;;;;;5054537;28;20261;-82
2024/03/08 02:35:47;;;;;;;23.23;13.40;;;0.80;99.90;;;;;;5055782;28;20185;-80
2024/03/08 02:38:22;;;;;;;25.03;13.70;;;0.70;99.90;;;;;;5054555;28;20190;-81
2024/03/08 02:40:49;;;;;;;23.53;12.83;;;0.70;99.90;;;;;;5054721;28;20185;-82
2024/03/08 02:43:16;;;;;;;23.43;12.50;;;0.60;99.90;;;;;;5055918;28;20185;-82
2024/03/08 02:45:42;;;;;;;24.00;12.97;;;0.60;99.90;;;;;;5054709;28;20178;-81
2024/03/08 02:48:08;;;;;;;23.93;13.60;;;0.50;99.90;;;;;;5055542;28;20210;-81
2024/03/08 02:50:36;;;;;;;24.63;13.37;;;0.50;99.90;;;;;;5050368;28;20213;-81
2024/03/08 02:53:02;;;;;;;21.87;13.13;;;0.50;99.90;;;;;;5055425;28;20268;-80
2024/03/08 02:55:29;;;;;;;22.43;13.17;;;0.50;99.90;;;;;;5055393;28;20182;-80
2024/03/08 02:57:55;;;;;;;21.80;13.00;;;0.50;99.90;;;;;;5054136;28;20554;-81
2024/03/08 03:00:22;;;;;;;22.83;12.80;;;0.40;99.90;;;;;;5055537;28;20193;-81
2024/03/08 03:02:53;;;;;;;24.27;13.13;;;0.40;99.90;;;;;;5053905;28;20185;-81
2024/03/08 03:05:24;;;;;;;24.80;13.17;;;0.40;99.90;;;;;;5054308;28;20187;-80
2024/03/08 03:07:50;;;;;;;25.23;13.43;;;0.40;99.90;;;;;;5053827;28;20188;-80
2024/03/08 03:10:21;;;;;;;24.90;13.73;;;0.40;99.90;;;;;;5053941;28;20208;-80
2024/03/08 03:12:51;;;;;;;23.23;13.73;;;0.40;99.90;;;;;;5055299;28;20569;-80
2024/03/08 03:15:17;;;;;;;26.47;13.57;;;0.30;99.90;;;;;;5053840;28;20546;-80
2024/03/08 03:17:48;;;;;;;25.10;13.57;;;0.30;99.90;;;;;;5053827;28;20186;-81
2024/03/08 03:20:14;;;;;;;27.53;14.93;;;0.30;99.90;;;;;;5047186;28;20194;-80
2024/03/08 03:22:47;;;;;;;26.23;14.73;;;0.40;99.90;;;;;;5485022;22;21289;-80
2024/03/08 03:25:12;;;;;;;25.07;14.17;;;0.30;99.90;;;;;;5028584;28;20283;-85
2024/03/08 03:27:40;;;;;;;22.97;13.97;;;0.30;99.90;;;;;;5035244;28;20619;-79
2024/03/08 03:30:21;;;;;;;27.47;15.13;;;0.30;99.90;;;;;;5034444;28;20201;-79
2024/03/08 03:32:51;;;;;;;23.77;13.93;;;0.20;99.90;;;;;;5027702;28;20206;-85
2024/03/08 03:35:23;;;;;;;25.23;14.27;;;0.20;99.90;;;;;;5035202;28;20215;-85
2024/03/08 03:38:07;;;;;;;26.53;15.73;;;0.20;99.90;;;;;;5033584;28;20264;-82
2024/03/08 03:40:37;;;;;;;26.40;15.23;;;0.20;99.90;;;;;;5028321;28;20527;-87
2024/03/08 03:43:03;;;;;;;25.53;14.27;;;0.20;99.90;;;;;;5034504;28;20182;-81
2024/03/08 03:45:33;;;;;;;26.53;15.27;;;0.20;99.90;;;;;;5034943;28;20185;-81
2024/03/08 03:48:00;;;;;;;27.30;15.13;;;0.20;99.90;;;;;;5026159;28;20175;-81
2024/03/08 03:50:26;;;;;;;26.20;14.90;;;0.20;99.90;;;;;;5034574;28;20195;-80
2024/03/08 03:52:52;;;;;;;31.13;15.73;;;0.20;99.90;;;;;;5032335;28;20183;-82
2024/03/08 03:55:19;;;;;;;27.60;15.97;;;0.20;99.90;;;;;;5034182;28;20182;-80
2024/03/08 03:57:45;;;;;;;25.57;15.53;;;0.20;99.90;;;;;;5033307;28;20680;-83
2024/03/08 04:00:12;;;;;;;26.53;15.03;;;0.20;99.90;;;;;;5034102;28;20232;-81
2024/03/08 04:02:39;;;;;;;29.00;15.90;;;0.20;99.90;;;;;;5034573;28;20182;-80
2024/03/08 04:05:09;;;;;;;26.20;15.03;;;0.10;99.90;;;;;;5025127;28;20186;-80
2024/03/08 04:07:36;;;;;;;23.20;14.63;;;0.10;99.90;;;;;;5034513;28;20183;-81
2024/03/08 04:10:03;;;;;;;26.73;14.90;;;0.10;99.90;;;;;;5033842;28;20196;-85
2024/03/08 04:12:29;;;;;;;27.63;15.13;;;0.10;99.90;;;;;;5033424;28;20516;-81
2024/03/08 04:14:56;;;;;;;28.00;15.27;;;0.10;99.90;;;;;;5033542;28;20182;-81
2024/03/08 04:17:24;;;;;;;28.97;15.90;;;0.10;99.90;;;;;;5034762;28;20253;-88
2024/03/08 04:19:50;;;;;;;26.87;15.17;;;0.10;99.90;;;;;;5035038;28;20178;-90
2024/03/08 04:22:17;;;;;;;27.17;15.77;;;0.10;99.90;;;;;;5034592;28;20186;-84
2024/03/08 04:24:44;;;;;;;28.20;15.67;;;0.10;99.90;;;;;;5030478;28;20234;-87
2024/03/08 04:27:10;;;;;;;25.00;15.13;;;0.00;99.90;;;;;;5034244;28;20217;-82
2024/03/08 04:29:36;;;;;;;25.20;15.37;;;0.00;99.90;;;;;;5034324;28;20617;-82
2024/03/08 04:32:08;;;;;;;27.57;15.20;;;0.00;99.90;;;;;;5008723;28;20202;-82
2024/03/08 04:34:35;;;;;;;29.63;15.30;;;0.00;99.90;;;;;;5034610;28;20181;-89
2024/03/08 04:37:02;;;;;;;25.00;15.43;;;0.00;99.90;;;;;;5034308;28;20186;-81
2024/03/08 04:39:28;;;;;;;27.13;15.37;;;0.00;99.90;;;;;;5029321;28;20901;-84
2024/03/08 04:41:57;;;;;;;25.23;15.20;;;0.00;99.90;;;;;;5030561;28;20551;-81
2024/03/08 04:44:24;;;;;;;23.33;14.93;;;0.00;99.90;;;;;;5033907;28;20625;-81
2024/03/08 04:46:50;;;;;;;29.93;16.03;;;-0.10;99.90;;;;;;5008182;28;20186;-80
2024/03/08 04:49:16;;;;;;;25.37;15.13;;;-0.10;99.90;;;;;;5033621;28;20524;-81
2024/03/08 04:51:42;;;;;;;27.50;15.57;;;-0.10;99.90;;;;;;5033765;28;20198;-82
2024/03/08 04:54:08;;;;;;;30.83;15.37;;;-0.20;99.90;;;;;;5031492;28;20228;-82
2024/03/08 04:56:34;;;;;;;26.90;15.53;;;-0.20;99.90;;;;;;5015904;28;20190;-81
2024/03/08 04:59:00;;;;;;;25.90;15.83;;;-0.20;99.90;;;;;;5033746;28;20632;-81
2024/03/08 05:01:26;;;;;;;26.93;15.80;;;-0.30;99.90;;;;;;5034090;28;20651;-81
2024/03/08 05:03:55;;;;;;;24.10;14.83;;;-0.30;99.90;;;;;;5033800;28;20564;-81
2024/03/08 05:06:21;;;;;;;26.43;15.03;;;-0.30;99.90;;;;;;5014153;28;20543;-82
2024/03/08 05:08:47;;;;;;;28.67;16.43;;;-0.30;99.90;;;;;;5029186;28;20205;-81
2024/03/08 05:11:14;;;;;;;27.00;15.90;;;-0.40;99.90;;;;;;5033613;28;20211;-81
2024/03/08 05:13:40;;;;;;;29.40;16.03;;;-0.40;99.90;;;;;;5016428;28;20182;-82
2024/03/08 05:16:07;;;;;;;32.23;16.33;;;-0.40;99.90;;;;;;5033707;28;20179;-82
2024/03/08 05:18:36;;;;;;;30.47;15.87;;;-0.40;99.90;;;;;;5032259;28;20269;-82
2024/03/08 05:21:03;;;;;;;30.27;16.33;;;-0.40;99.90;;;;;;5033599;28;20187;-82
2024/03/08 05:23:30;;;;;;;29.43;15.90;;;-0.40;99.90;;;;;;5030648;28;20321;-81
2024/03/08 05:25:57;;;;;;;30.17;16.47;;;-0.40;99.90;;;;;;5033670;28;20182;-81
2024/03/08 05:28:23;;;;;;;28.93;16.13;;;-0.40;99.90;;;;;;5015764;28;20656;-82
2024/03/08 05:30:48;;;;;;;24.97;15.20;;;-0.40;99.90;;;;;;5015415;28;20229;-81
2024/03/08 05:33:14;;;;;;;26.30;15.73;;;-0.50;99.90;;;;;;5037140;28;20186;-82
2024/03/08 05:35:40;;;;;;;32.93;16.63;;;-0.40;99.90;;;;;;5037331;28;20501;-81
2024/03/08 05:38:06;;;;;;;28.80;15.20;;;-0.50;99.90;;;;;;5031196;28;20313;-80
2024/03/08 05:40:33;;;;;;;28.27;16.00;;;-0.50;99.90;;;;;;5036957;28;20629;-81
2024/03/08 05:42:59;;;;;;;26.30;16.07;;;-0.50;99.90;;;;;;5036186;28;20300;-81
2024/03/08 05:45:25;;;;;;;26.37;15.33;;;-0.40;99.90;;;;;;5029458;28;20192;-81
2024/03/08 05:47:54;;;;;;;29.70;16.83;;;-0.50;99.90;;;;;;5010365;28;20178;-81
2024/03/08 05:50:20;;;;;;;29.50;15.40;;;-0.50;99.90;;;;;;5037027;28;20198;-81
2024/03/08 05:52:47;;;;;;;31.93;16.27;;;-0.50;99.90;;;;;;5035821;28;20178;-80
2024/03/08 05:55:14;;;;;;;28.97;16.73;;;-0.50;99.90;;;;;;5035688;28;20541;-81
2024/03/08 05:57:42;;;;;;;28.87;15.77;;;-0.50;99.90;;;;;;5029290;28;20179;-80
2024/03/08 06:00:11;;;;;;;25.60;15.67;;;-0.50;99.90;;;;;;5017017;28;20266;-81
2024/03/08 06:02:40;;;;;;;31.83;17.00;;;-0.50;99.90;;;;;;5036563;28;20507;-81
2024/03/08 06:05:08;;;;;;;28.23;16.30;;;-0.50;99.90;;;;;;5035455;28;20187;-81
2024/03/08 06:07:34;;;;;;;34.10;16.13;;;-0.50;99.90;;;;;;5036380;28;20178;-81
2024/03/08 06:10:00;;;;;;;32.97;16.70;;;-0.50;99.90;;;;;;5015770;28;20572;-81
2024/03/08 06:12:28;;;;;;;29.97;16.63;;;-0.50;99.90;;;;;;5036553;28;20182;-81
2024/03/08 06:14:54;;;;;;;28.43;16.10;;;-0.50;99.90;;;;;;5010813;28;20229;-81
2024/03/08 06:17:25;;;;;;;26.73;15.97;;;-0.50;99.90;;;;;;5020640;28;20214;-82
2024/03/08 06:19:51;;;;;;;29.80;16.83;;;-0.50;99.90;;;;;;5018489;28;20544;-81
2024/03/08 06:22:18;;;;;;;31.50;16.97;;;-0.50;99.90;;;;;;5036159;28;20193;-81
2024/03/08 06:24:44;;;;;;;27.83;15.87;;;-0.50;99.90;;;;;;5016244;28;20268;-82
2024/03/08 06:27:09;;;;;;;28.53;15.73;;;-0.50;99.90;;;;;;5036130;28;20174;-84
2024/03/08 06:29:35;;;;;;;29.40;16.37;;;-0.40;99.90;;;;;;5034724;28;20231;-84
2024/03/08 06:32:03;;;;;;;28.77;17.03;;;-0.40;99.90;;;;;;5036026;28;20316;-81
2024/03/08 06:34:28;;;;;;;29.60;16.13;;;-0.40;99.90;;;;;;4995541;28;20533;-85
2024/03/08 06:37:00;;;;;;;31.60;17.27;;;-0.40;99.90;;;;;;5028148;28;20186;-90
2024/03/08 06:39:26;;;;;;;32.70;17.23;;;-0.40;99.90;;;;;;5002527;28;20191;-88
2024/03/08 06:41:52;;;;;;;28.33;16.83;;;-0.30;99.90;;;;;;5036538;28;20178;-83
2024/03/08 06:44:21;;;;;;;29.60;17.00;;;-0.30;99.90;;;;;;5017454;28;20198;-82
2024/03/08 06:46:48;;;;;;;27.77;16.17;;;-0.30;99.90;;;;;;5035464;28;20178;-81
2024/03/08 06:49:15;;;;;;;29.50;16.13;;;-0.30;99.90;;;;;;5009596;28;20187;-81
2024/03/08 06:51:41;;;;;;;27.77;16.90;;;-0.20;99.90;;;;;;5035972;28;20570;-81
2024/03/08 06:54:08;;;;;;;30.63;16.70;;;-0.10;99.90;;;;;;5028180;28;20228;-80
2024/03/08 06:56:37;;;;;;;33.30;17.20;;;-0.20;99.90;;;;;;5029336;28;20178;-80
2024/03/08 06:59:06;;;;;;;31.27;17.60;;;-0.10;99.90;;;;;;5012487;28;20524;-82
2024/03/08 07:01:32;;;;;;;31.43;17.87;;;-0.10;99.90;;;;;;5017995;28;20530;-81
2024/03/08 07:03:58;;;;;;;29.33;16.50;;;-0.10;99.90;;;;;;5016009;28;20178;-80
2024/03/08 07:06:24;;;;;;;27.27;16.57;;;0.00;99.90;;;;;;5035323;28;20186;-85
2024/03/08 07:08:49;;;;;;;26.67;16.53;;;0.00;99.90;;;;;;5035462;28;20241;-82
2024/03/08 07:11:18;;;;;;;31.50;16.80;;;0.10;99.90;;;;;;5035277;28;20214;-91
2024/03/08 07:13:45;;;;;;;30.20;17.20;;;0.10;99.90;;;;;;5017881;28;20266;-89
2024/03/08 07:16:12;;;;;;;30.40;17.53;;;0.20;99.90;;;;;;5033875;28;20182;-83
2024/03/08 07:18:43;;;;;;;30.77;18.03;;;0.30;99.90;;;;;;5028178;28;20638;-82
2024/03/08 07:21:12;;;;;;;30.40;16.80;;;0.30;99.90;;;;;;5016003;28;20205;-87
2024/03/08 07:24:02;;;;;;;28.50;17.37;;;0.40;99.90;;;;;;5009418;28;20569;-83
2024/03/08 07:26:30;;;;;;;32.93;17.30;;;0.40;99.90;;;;;;5034050;28;20232;-91
2024/03/08 07:28:56;;;;;;;28.40;17.23;;;0.40;99.90;;;;;;5034777;28;20179;-84
2024/03/08 07:33:51;;;;;;;27.43;16.77;;;0.60;99.90;;;;;;5025879;28;20178;-82
2024/03/08 07:36:17;;;;;;;29.30;17.50;;;0.70;99.90;;;;;;5016718;28;20186;-87
2024/03/08 07:38:43;;;;;;;33.37;17.77;;;0.70;99.90;;;;;;5017392;28;20229;-84
2024/03/08 07:41:09;;;;;;;26.17;17.23;;;0.80;99.90;;;;;;5035259;28;20177;-83
2024/03/08 07:43:35;;;;;;;27.97;17.37;;;0.90;99.90;;;;;;5018136;28;20277;-87
2024/03/08 07:46:01;;;;;;;29.50;17.73;;;0.90;99.90;;;;;;5034581;28;20240;-83
2024/03/08 07:48:27;;;;;;;28.53;17.53;;;1.00;99.90;;;;;;5008789;28;20190;-82
2024/03/08 07:50:53;;;;;;;28.60;17.17;;;1.10;99.90;;;;;;5033543;28;20293;-83
2024/03/08 07:53:19;;;;;;;30.93;17.93;;;1.20;99.90;;;;;;5008943;28;20214;-83
2024/03/08 07:55:45;;;;;;;35.13;18.63;;;1.20;99.90;;;;;;5017153;28;20265;-83
2024/03/08 07:58:11;;;;;;;26.87;17.57;;;1.30;99.90;;;;;;5006533;28;20295;-83
2024/03/08 08:00:37;;;;;;;28.17;16.93;;;1.40;99.90;;;;;;5023121;28;20229;-83
2024/03/08 08:03:04;;;;;;;26.60;17.87;;;1.50;99.90;;;;;;5015938;28;20512;-83
2024/03/08 08:05:35;;;;;;;29.67;17.67;;;1.50;99.90;;;;;;5026795;28;20229;-83
2024/03/08 08:08:05;;;;;;;31.50;18.30;;;1.60;99.90;;;;;;5005822;28;20183;-83
2024/03/08 08:10:34;;;;;;;29.67;17.90;;;1.70;99.90;;;;;;5002328;28;20218;-83
2024/03/08 08:13:00;;;;;;;29.10;17.90;;;1.80;99.90;;;;;;5024671;28;20179;-84
2024/03/08 08:15:27;;;;;;;31.03;16.90;;;1.90;99.90;;;;;;5027110;28;20185;-83
2024/03/08 08:17:53;;;;;;;28.67;18.33;;;2.00;99.90;;;;;;5024889;28;20806;-85
2024/03/08 08:20:19;;;;;;;27.43;17.00;;;2.10;99.90;;;;;;5021249;28;20183;-84
2024/03/08 08:22:45;;;;;;;30.10;17.80;;;2.20;99.90;;;;;;5003974;28;20183;-82
2024/03/08 08:25:13;;;;;;;29.23;17.77;;;2.30;99.90;;;;;;5004012;28;20854;-83
2024/03/08 08:27:45;;;;;;;30.97;17.27;;;2.40;99.90;;;;;;5011127;28;20190;-80
2024/03/08 08:30:11;;;;;;;29.50;18.17;;;2.40;99.90;;;;;;5023449;28;20652;-84
2024/03/08 08:32:42;;;;;;;29.17;18.33;;;2.50;99.90;;;;;;5021500;28;20187;-83
2024/03/08 08:35:09;;;;;;;26.33;17.70;;;2.60;99.90;;;;;;5029482;28;20180;-83
2024/03/08 08:37:37;;;;;;;27.87;17.97;;;2.60;99.90;;;;;;5034262;28;20186;-83
2024/03/08 08:40:09;;;;;;;29.13;17.37;;;2.70;99.90;;;;;;5033082;28;20196;-84
2024/03/08 08:42:34;;;;;;;27.30;17.27;;;2.80;99.90;;;;;;5033698;28;20178;-84
2024/03/08 08:45:04;;;;;;;35.10;17.63;;;2.80;99.90;;;;;;5031766;28;20248;-85
2024/03/08 08:47:30;;;;;;;33.47;17.50;;;2.90;99.90;;;;;;5016410;28;20528;-85
2024/03/08 08:49:55;;;;;;;30.03;17.33;;;3.00;99.90;;;;;;5032124;28;20210;-84
2024/03/08 08:52:21;;;;;;;29.90;18.83;;;3.10;99.90;;;;;;5025873;28;20190;-83
2024/03/08 08:54:49;;;;;;;31.43;17.20;;;3.20;99.90;;;;;;5016256;28;20186;-84
2024/03/08 08:57:15;;;;;;;27.53;18.93;;;3.20;99.90;;;;;;5007837;28;20201;-84
2024/03/08 08:59:41;;;;;;;30.63;18.63;;;3.20;99.90;;;;;;5007802;28;20187;-84
2024/03/08 09:02:08;;;;;;;29.60;17.33;;;3.30;99.90;;;;;;5000973;28;20183;-87
2024/03/08 09:04:35;;;;;;;31.07;19.40;;;3.40;99.90;;;;;;5029227;28;20213;-85
2024/03/08 09:07:01;;;;;;;28.90;19.03;;;3.50;99.90;;;;;;5036858;28;20652;-85
2024/03/08 09:09:27;;;;;;;30.83;18.23;;;3.60;99.90;;;;;;5004682;28;20182;-85
2024/03/08 09:11:54;;;;;;;30.47;19.60;;;3.70;99.90;;;;;;5030038;28;20274;-85
2024/03/08 09:14:20;;;;;;;29.40;18.10;;;3.80;99.90;;;;;;5012435;28;20182;-91
2024/03/08 09:16:47;;;;;;;34.87;19.07;;;3.80;99.90;;;;;;5036345;28;20605;-91
2024/03/08 09:19:13;;;;;;;26.33;16.70;;;3.70;99.90;;;;;;5020202;28;20633;-93
2024/03/08 09:21:40;;;;;;;28.23;18.73;;;3.80;99.90;;;;;;5038304;28;20186;-84
2024/03/08 09:24:06;;;;;;;30.80;18.13;;;3.90;99.90;;;;;;5011438;28;20231;-85
2024/03/08 09:26:33;;;;;;;32.17;19.57;;;4.00;99.90;;;;;;5036656;28;20572;-83
2024/03/08 09:28:59;;;;;;;30.00;19.90;;;4.10;99.90;;;;;;5037218;28;20211;-84
2024/03/08 09:31:25;;;;;;;32.93;19.13;;;4.10;99.90;;;;;;5028675;28;20560;-85
2024/03/08 09:33:51;;;;;;;29.13;18.23;;;4.20;99.90;;;;;;5019165;28;20179;-88
2024/03/08 09:36:17;;;;;;;30.87;19.47;;;4.30;99.90;;;;;;5036838;28;20207;-85
2024/03/08 09:38:44;;;;;;;27.53;19.00;;;4.30;99.90;;;;;;5037300;28;20214;-87
2024/03/08 09:41:13;;;;;;;28.50;18.70;;;4.30;99.90;;;;;;5034323;28;20182;-85
2024/03/08 09:43:39;;;;;;;30.33;19.73;;;4.50;99.90;;;;;;5028150;28;20617;-89
2024/03/08 09:46:06;;;;;;;33.73;19.23;;;4.50;99.90;;;;;;5027883;28;20186;-86
2024/03/08 09:48:35;;;;;;;31.63;19.77;;;4.70;99.90;;;;;;5036963;28;20601;-92
2024/03/08 09:51:02;;;;;;;33.37;20.60;;;4.80;99.90;;;;;;5035703;28;20292;-84
2024/03/08 09:53:29;;;;;;;31.50;20.30;;;4.90;99.90;;;;;;5035846;28;20183;-85
2024/03/08 09:55:55;;;;;;;32.47;19.97;;;5.00;99.90;;;;;;5019153;28;20186;-86
2024/03/08 09:58:42;;;;;;;30.93;19.50;;;5.10;99.90;;;;;;5003575;28;20194;-86
2024/03/08 10:01:08;;;;;;;31.43;19.83;;;5.10;99.90;;;;;;5036961;28;20171;-90
2024/03/08 10:03:34;;;;;;;30.70;19.80;;;5.10;99.90;;;;;;5037151;28;20187;-92
2024/03/08 10:06:02;;;;;;;33.07;20.93;;;5.30;99.90;;;;;;5033321;28;20175;-83
2024/03/08 10:08:31;;;;;;;33.67;20.13;;;5.30;99.90;;;;;;5035464;28;20650;-84
2024/03/08 10:11:00;;;;;;;32.40;20.83;;;5.30;99.90;;;;;;5037000;28;20251;-92
2024/03/08 10:13:27;;;;;;;32.93;20.20;;;5.30;99.90;;;;;;5036451;28;20210;-90
2024/03/08 10:15:54;;;;;;;30.93;20.37;;;5.40;99.90;;;;;;5036563;28;20182;-86
2024/03/08 10:18:21;;;;;;;31.13;19.37;;;5.50;99.90;;;;;;5032755;28;20187;-91
2024/03/08 10:21:03;;;;;;;30.27;19.70;;;5.50;99.90;;;;;;5030418;28;20183;-83
2024/03/08 10:23:30;;;;;;;32.07;19.00;;;5.60;99.90;;;;;;5020160;28;20222;-86
2024/03/08 10:25:58;;;;;;;31.77;19.93;;;5.70;99.90;;;;;;5035276;28;20182;-87
2024/03/08 10:28:28;;;;;;;30.97;19.57;;;5.60;99.90;;;;;;5035816;28;20205;-86
2024/03/08 10:30:57;;;;;;;32.67;20.63;;;5.70;99.90;;;;;;5035036;28;20244;-87
2024/03/08 10:33:23;;;;;;;31.07;19.57;;;5.90;99.90;;;;;;5020586;28;20181;-88
2024/03/08 10:35:49;;;;;;;32.40;20.77;;;5.90;99.90;;;;;;5032730;28;20178;-84
2024/03/08 10:38:20;;;;;;;28.37;18.63;;;6.00;99.90;;;;;;5035815;28;20175;-83
2024/03/08 10:40:46;;;;;;;31.63;20.33;;;6.00;99.90;;;;;;5034760;28;20193;-82
2024/03/08 10:43:24;;;;;;;32.37;19.20;;;6.20;99.90;;;;;;5036016;28;20253;-83
2024/03/08 10:45:55;;;;;;;29.20;19.17;;;6.30;99.90;;;;;;5035940;28;20269;-85
2024/03/08 10:48:32;;;;;;;30.03;18.90;;;6.40;99.90;;;;;;5018240;28;20179;-84
2024/03/08 10:51:03;;;;;;;27.43;18.67;;;6.70;99.90;;;;;;5017609;28;20553;-84
2024/03/08 10:53:29;;;;;;;29.57;19.17;;;6.70;99.90;;;;;;5034444;28;20179;-86
2024/03/08 10:55:58;;;;;;;31.27;20.20;;;6.70;99.90;;;;;;5017915;28;20625;-83
2024/03/08 10:58:27;;;;;;;27.93;17.80;;;6.70;99.90;;;;;;5017791;28;20393;-85
2024/03/08 11:00:55;;;;;;;32.63;20.23;;;6.70;99.90;;;;;;5034542;28;20221;-85
2024/03/08 11:03:40;;;;;;;27.70;18.33;;;6.80;99.90;;;;;;5034165;28;20209;-84
2024/03/08 11:06:29;;;;;;;28.63;18.67;;;6.90;99.90;;;;;;5015546;28;20186;-83
2024/03/08 11:08:58;;;;;;;26.17;18.47;;;7.00;99.90;;;;;;5035580;28;20175;-86
2024/03/08 11:11:36;;;;;;;27.60;18.57;;;7.10;99.90;;;;;;5027252;28;20891;-85
2024/03/08 11:14:04;;;;;;;32.73;19.57;;;7.20;99.90;;;;;;5035282;28;20257;-82
2024/03/08 11:16:31;;;;;;;27.97;18.57;;;7.30;99.90;;;;;;5033880;28;20186;-84
2024/03/08 11:19:04;;;;;;;28.23;17.53;;;7.20;99.90;;;;;;5017408;28;20194;-84
2024/03/08 11:21:33;;;;;;;26.20;17.47;;;7.30;99.90;;;;;;5033767;28;20198;-85
2024/03/08 11:24:07;;;;;;;26.23;18.00;;;7.20;99.90;;;;;;5034309;28;20230;-82
2024/03/08 11:26:36;;;;;;;29.93;17.80;;;7.20;99.90;;;;;;5033929;28;20518;-84
2024/03/08 11:29:27;;;;;;;26.97;17.70;;;7.30;99.90;;;;;;5008706;28;20522;-82
2024/03/08 11:32:23;;;;;;;29.47;18.13;;;7.40;99.90;;;;;;5017292;28;20203;-85
2024/03/08 11:34:50;;;;;;;27.07;18.73;;;7.60;99.90;;;;;;5023705;28;20190;-83
2024/03/08 11:37:23;;;;;;;27.60;18.17;;;7.70;99.90;;;;;;5034533;28;20208;-83
2024/03/08 11:39:51;;;;;;;29.27;19.00;;;7.70;99.90;;;;;;5033534;28;20182;-85
2024/03/08 11:42:20;;;;;;;23.67;17.23;;;7.80;99.90;;;;;;5026857;28;20248;-84
2024/03/08 11:44:47;;;;;;;26.73;17.57;;;7.80;99.90;;;;;;5026903;28;20182;-85
2024/03/08 11:47:14;;;;;;;26.23;17.83;;;7.90;99.90;;;;;;5025406;28;20191;-85
2024/03/08 11:49:44;;;;;;;23.63;15.80;;;8.10;99.90;;;;;;5026734;28;20170;-84
2024/03/08 11:52:19;;;;;;;23.97;14.90;;;8.20;99.90;;;;;;5034446;28;20178;-82
2024/03/08 11:54:57;;;;;;;24.03;15.63;;;8.10;99.90;;;;;;5026841;28;20180;-83
2024/03/08 11:57:24;;;;;;;22.10;15.40;;;8.10;99.90;;;;;;5018765;28;20174;-81
2024/03/08 11:59:51;;;;;;;25.23;16.63;;;8.10;99.90;;;;;;5016739;28;20189;-83
2024/03/08 12:02:19;;;;;;;25.17;15.48;;;8.10;99.90;;;;;;5034669;28;20186;-85
2024/03/08 12:04:48;;;;;;;23.97;15.60;;;8.10;99.90;;;;;;5031464;28;20178;-82
2024/03/08 12:07:18;;;;;;;21.03;15.00;;;8.20;99.90;;;;;;5026245;28;20191;-84
2024/03/08 12:10:05;;;;;;;23.00;15.77;;;8.30;99.90;;;;;;5026345;28;20174;-82
2024/03/08 12:12:32;;;;;;;23.87;14.90;;;8.40;99.90;;;;;;5012539;28;20654;-82
2024/03/08 12:14:58;;;;;;;23.50;15.10;;;8.50;99.90;;;;;;5034572;28;20254;-82
2024/03/08 12:17:24;;;;;;;24.15;15.25;;;8.60;99.90;;;;;;5021552;28;20567;-83
2024/03/08 12:19:50;;;;;;;22.17;15.23;;;8.50;99.90;;;;;;5030062;28;20175;-82
2024/03/08 12:22:15;;;;;;;22.67;14.77;;;8.40;99.90;;;;;;5034035;28;20182;-84
2024/03/08 12:24:42;;;;;;;26.83;15.73;;;8.50;99.90;;;;;;5029376;28;20309;-82
2024/03/08 12:27:20;;;;;;;24.17;15.87;;;8.50;99.90;;;;;;5014673;28;20179;-82
2024/03/08 12:29:46;;;;;;;21.50;14.20;;;8.50;99.90;;;;;;5032599;28;20552;-87
2024/03/08 12:32:12;;;;;;;28.33;15.03;;;8.30;99.90;;;;;;5016493;28;20199;-83
2024/03/08 12:34:39;;;;;;;19.73;13.87;;;8.40;99.90;;;;;;5032766;28;20183;-81
2024/03/08 12:37:07;;;;;;;30.10;14.73;;;8.40;99.90;;;;;;5032150;28;20179;-82
2024/03/08 12:39:33;;;;;;;21.70;14.33;;;8.40;99.90;;;;;;5033929;28;20216;-83
2024/03/08 12:41:59;;;;;;;24.35;14.93;;;8.50;99.90;;;;;;5034142;28;20265;-84